createdAt,value
2022-11-03T00:01:57.833Z,101440.13
2022-11-03T00:04:24.711Z,101436.53
2022-11-03T00:06:51.515Z,101432.13
2022-11-03T00:09:18.275Z,101434.47
2022-11-03T00:11:45.032Z,101427.69
2022-11-03T00:14:11.783Z,101431.75
2022-11-03T00:16:38.524Z,101422.63
2022-11-03T00:19:05.294Z,101423.91
2022-11-03T00:21:32.050Z,101402.13
2022-11-03T00:23:58.812Z,101413.94
2022-11-03T00:26:25.599Z,101409.72
2022-11-03T00:28:52.360Z,101416.69
2022-11-03T00:31:19.106Z,101409.06
2022-11-03T00:33:45.895Z,101407.69
2022-11-03T00:36:12.656Z,101415.50
2022-11-03T00:38:39.402Z,101407.50
2022-11-03T00:41:06.198Z,101403.72
2022-11-03T00:43:33.038Z,101411.78
2022-11-03T00:45:59.786Z,101412.44
2022-11-03T00:48:29.551Z,101406.94
2022-11-03T00:50:56.295Z,101419.63
2022-11-03T00:53:23.091Z,101407.81
2022-11-03T00:55:50.074Z,101405.06
2022-11-03T00:58:16.827Z,101405.91
2022-11-03T01:00:43.618Z,101403.16
2022-11-03T01:03:10.391Z,101406.97
2022-11-03T01:05:55.946Z,101401.44
2022-11-03T01:08:26.557Z,101395.22
2022-11-03T01:11:13.099Z,101395.50
2022-11-03T01:13:39.899Z,101395.50
2022-11-03T01:16:06.648Z,101388.59
2022-11-03T01:18:33.498Z,101396.31
2022-11-03T01:21:00.262Z,101396.56
2022-11-03T01:23:27.054Z,101405.25
2022-11-03T01:25:53.819Z,101387.47
2022-11-03T01:28:20.586Z,101391.31
2022-11-03T01:30:47.376Z,101380.72
2022-11-03T01:33:14.891Z,101376.50
2022-11-03T01:35:41.651Z,101364.69
2022-11-03T01:38:08.394Z,101367.19
2022-11-03T01:40:35.139Z,101358.06
2022-11-03T01:43:01.973Z,101351.22
2022-11-03T01:45:28.730Z,101363.13
2022-11-03T01:47:55.552Z,101362.16
2022-11-03T01:50:22.352Z,101355.91
2022-11-03T01:52:49.127Z,101356.56
2022-11-03T01:55:15.883Z,101362.06
2022-11-03T01:57:42.795Z,101360.41
2022-11-03T02:00:09.548Z,101364.19
2022-11-03T02:02:36.320Z,101357.88
2022-11-03T02:05:03.103Z,101359.56
2022-11-03T02:07:29.867Z,101352.38
2022-11-03T02:09:56.629Z,101346.03
2022-11-03T02:12:23.391Z,101338.41
2022-11-03T02:14:50.219Z,101330.97
2022-11-03T02:17:16.996Z,101336.47
2022-11-03T02:19:43.779Z,101332.44
2022-11-03T02:22:10.547Z,101322.50
2022-11-03T02:24:37.313Z,101314.59
2022-11-03T02:27:04.065Z,101317.50
2022-11-03T02:29:30.824Z,101301.66
2022-11-03T02:31:57.563Z,101312.69
2022-11-03T02:34:24.538Z,101315.50
2022-11-03T02:36:51.278Z,101316.00
2022-11-03T02:39:18.032Z,101315.56
2022-11-03T02:41:44.791Z,101305.84
2022-11-03T02:44:11.546Z,101296.97
2022-11-03T02:46:38.291Z,101293.97
2022-11-03T02:49:05.067Z,101293.53
2022-11-03T02:51:31.820Z,101287.59
2022-11-03T02:53:58.564Z,101290.56
2022-11-03T02:56:25.543Z,101278.25
2022-11-03T02:58:52.727Z,101276.59
2022-11-03T03:01:19.657Z,101275.56
2022-11-03T03:03:48.267Z,101281.41
2022-11-03T03:06:15.100Z,101290.22
2022-11-03T03:08:41.926Z,101273.44
2022-11-03T03:11:08.696Z,101280.78
2022-11-03T03:13:35.438Z,101277.00
2022-11-03T03:16:02.191Z,101283.38
2022-11-03T03:18:28.934Z,101270.78
2022-11-03T03:20:56.187Z,101267.38
2022-11-03T03:23:22.939Z,101271.59
2022-11-03T03:25:49.918Z,101263.13
2022-11-03T03:28:16.768Z,101263.75
2022-11-03T03:30:43.520Z,101269.88
2022-11-03T03:33:10.368Z,101267.34
2022-11-03T03:35:37.253Z,101260.09
2022-11-03T03:38:04.408Z,101257.97
2022-11-03T03:40:31.383Z,101258.59
2022-11-03T03:42:58.135Z,101256.00
2022-11-03T03:45:24.867Z,101262.69
2022-11-03T03:47:57.331Z,101265.06
2022-11-03T03:50:24.582Z,101254.03
2022-11-03T03:52:51.331Z,101248.53
2022-11-03T03:55:18.305Z,101247.94
2022-11-03T03:57:45.151Z,101239.47
2022-11-03T04:00:11.911Z,101234.41
2022-11-03T04:02:38.704Z,101240.69
2022-11-03T04:05:05.475Z,101247.88
2022-11-03T04:07:47.526Z,101228.84
2022-11-03T04:10:14.271Z,101228.00
2022-11-03T04:13:00.059Z,101226.66
2022-11-03T04:15:45.311Z,101226.13
2022-11-03T04:18:30.639Z,101228.72
2022-11-03T04:21:15.874Z,101225.44
2022-11-03T04:23:42.905Z,101225.75
2022-11-03T04:26:09.655Z,101213.03
2022-11-03T04:28:36.398Z,101213.84
2022-11-03T04:31:03.160Z,101203.91
2022-11-03T04:33:29.979Z,101206.03
2022-11-03T04:35:56.763Z,101199.13
2022-11-03T04:38:23.607Z,101197.41
2022-11-03T04:40:53.647Z,101203.50
2022-11-03T04:43:21.596Z,101200.34
2022-11-03T04:45:48.357Z,101189.94
2022-11-03T04:48:15.103Z,101194.56
2022-11-03T04:50:46.586Z,101188.41
2022-11-03T04:53:13.761Z,101186.47
2022-11-03T04:55:40.507Z,101175.47
2022-11-03T04:58:07.260Z,101172.47
2022-11-03T05:00:34.066Z,101171.19
2022-11-03T05:03:00.816Z,101171.63
2022-11-03T05:05:27.578Z,101165.84
2022-11-03T05:07:54.339Z,101174.88
2022-11-03T05:10:21.086Z,101170.69
2022-11-03T05:12:47.917Z,101166.09
2022-11-03T05:15:14.684Z,101166.56
2022-11-03T05:17:41.447Z,101163.38
2022-11-03T05:20:08.191Z,101163.16
2022-11-03T05:22:34.991Z,101161.41
2022-11-03T05:25:01.769Z,101154.41
2022-11-03T05:27:28.551Z,101148.91
2022-11-03T05:29:57.940Z,101142.78
2022-11-03T05:32:27.407Z,101145.44
2022-11-03T05:34:54.142Z,101147.06
2022-11-03T05:37:26.011Z,101143.72
2022-11-03T05:39:53.407Z,101133.69
2022-11-03T05:42:20.153Z,101144.50
2022-11-03T05:44:46.937Z,101138.56
2022-11-03T05:47:13.670Z,101119.75
2022-11-03T05:49:40.478Z,101118.19
2022-11-03T05:52:07.279Z,101124.53
2022-11-03T05:54:34.783Z,101113.09
2022-11-03T05:57:01.519Z,101111.00
2022-11-03T05:59:28.276Z,101108.84
2022-11-03T06:01:55.110Z,101107.97
2022-11-03T06:04:22.020Z,101111.28
2022-11-03T06:06:48.896Z,101117.13
2022-11-03T06:09:15.635Z,101121.81
2022-11-03T06:11:42.399Z,101120.91
2022-11-03T06:14:09.167Z,101121.31
2022-11-03T06:16:35.931Z,101123.56
2022-11-03T06:19:02.712Z,101123.75
2022-11-03T06:21:29.490Z,101117.47
2022-11-03T06:23:56.268Z,101115.84
2022-11-03T06:26:23.003Z,101123.94
2022-11-03T06:28:49.776Z,101118.41
2022-11-03T06:31:18.928Z,101118.50
2022-11-03T06:33:48.811Z,101118.38
2022-11-03T06:36:15.560Z,101107.59
2022-11-03T06:38:42.299Z,101113.53
2022-11-03T06:41:09.034Z,101110.94
2022-11-03T06:43:35.803Z,101115.53
2022-11-03T06:46:02.558Z,101122.88
2022-11-03T06:48:29.464Z,101113.75
2022-11-03T06:50:56.433Z,101112.72
2022-11-03T06:53:23.256Z,101110.34
2022-11-03T06:55:50.083Z,101112.00
2022-11-03T06:58:17.142Z,101110.41
2022-11-03T07:00:49.029Z,101102.00
2022-11-03T07:03:17.952Z,101105.47
2022-11-03T07:05:47.728Z,101090.38
2022-11-03T07:08:14.538Z,101099.19
2022-11-03T07:10:41.292Z,101098.78
2022-11-03T07:13:08.310Z,101099.59
2022-11-03T07:15:35.356Z,101102.56
2022-11-03T07:18:02.090Z,101098.72
2022-11-03T07:20:28.944Z,101096.16
2022-11-03T07:22:55.835Z,101101.59
2022-11-03T07:25:22.616Z,101105.78
2022-11-03T07:27:49.377Z,101094.75
2022-11-03T07:30:16.139Z,101094.69
2022-11-03T07:32:42.894Z,101099.31
2022-11-03T07:35:09.653Z,101096.59
2022-11-03T07:37:36.397Z,101093.53
2022-11-03T07:40:03.151Z,101086.50
2022-11-03T07:42:29.972Z,101092.22
2022-11-03T07:44:56.744Z,101077.28
2022-11-03T07:47:25.539Z,101074.34
2022-11-03T07:49:52.383Z,101072.69
2022-11-03T07:52:19.135Z,101077.41
2022-11-03T07:54:45.895Z,101071.66
2022-11-03T07:57:12.667Z,101075.34
2022-11-03T07:59:39.422Z,101069.00
2022-11-03T08:02:06.230Z,101067.47
2022-11-03T08:04:33.128Z,101062.13
2022-11-03T08:06:59.880Z,101055.66
2022-11-03T08:09:27.179Z,101049.13
2022-11-03T08:11:54.221Z,101038.44
2022-11-03T08:14:21.020Z,101042.44
2022-11-03T08:16:47.859Z,101033.25
2022-11-03T08:19:14.628Z,101023.31
2022-11-03T08:21:41.378Z,101022.22
2022-11-03T08:24:08.134Z,101026.13
2022-11-03T08:26:34.896Z,101012.56
2022-11-03T08:29:01.699Z,100999.72
2022-11-03T08:31:28.464Z,101006.78
2022-11-03T08:33:55.207Z,101002.09
2022-11-03T08:36:22.509Z,101002.69
2022-11-03T08:38:49.262Z,100993.91
2022-11-03T08:41:16.040Z,100982.72
2022-11-03T08:43:42.792Z,100980.53
2022-11-03T08:46:17.066Z,100979.66
2022-11-03T08:48:45.062Z,100977.44
2022-11-03T08:51:13.633Z,100982.56
2022-11-03T08:53:42.455Z,100979.91
2022-11-03T08:56:12.290Z,100978.03
2022-11-03T08:58:40.641Z,100974.28
2022-11-03T09:01:07.911Z,100977.94
2022-11-03T09:03:34.768Z,100969.25
2022-11-03T09:06:01.632Z,100966.63
2022-11-03T09:11:15.149Z,100956.75
2022-11-03T09:13:41.903Z,100952.28
2022-11-03T09:16:08.666Z,100951.97
2022-11-03T09:18:35.497Z,100951.44
2022-11-03T09:21:02.320Z,100943.16
2022-11-03T09:23:29.097Z,100935.84
2022-11-03T09:25:56.159Z,100936.06
2022-11-03T09:28:23.142Z,100935.78
2022-11-03T09:30:49.916Z,100935.38
2022-11-03T09:33:16.782Z,100925.91
2022-11-03T09:35:43.525Z,100923.78
2022-11-03T09:38:10.420Z,100916.72
2022-11-03T09:40:37.363Z,100906.88
2022-11-03T09:43:04.453Z,100912.91
2022-11-03T09:45:31.347Z,100907.72
2022-11-03T09:47:58.116Z,100903.66
2022-11-03T09:50:24.879Z,100895.16
2022-11-03T09:52:55.300Z,100891.03
2022-11-03T09:55:22.127Z,100887.63
2022-11-03T09:57:48.872Z,100885.25
2022-11-03T10:00:15.612Z,100885.59
2022-11-03T10:02:43.228Z,100881.44
2022-11-03T10:05:11.344Z,100879.00
2022-11-03T10:07:38.290Z,100872.09
2022-11-03T10:10:05.069Z,100873.78
2022-11-03T10:12:31.820Z,100864.78
2022-11-03T10:14:58.576Z,100865.28
2022-11-03T10:17:25.341Z,100866.25
2022-11-03T10:19:52.109Z,100860.81
2022-11-03T10:22:18.883Z,100857.19
2022-11-03T10:24:45.652Z,100850.56
2022-11-03T10:27:12.399Z,100854.69
2022-11-03T10:29:40.521Z,100849.72
2022-11-03T10:32:09.518Z,100850.28
2022-11-03T10:34:37.227Z,100852.31
2022-11-03T10:37:04.001Z,100846.72
2022-11-03T10:39:30.797Z,100844.00
2022-11-03T10:41:58.342Z,100844.09
2022-11-03T10:44:25.099Z,100839.03
2022-11-03T10:46:51.866Z,100831.25
2022-11-03T10:49:19.581Z,100821.81
2022-11-03T10:51:46.720Z,100822.88
2022-11-03T10:54:14.445Z,100816.50
2022-11-03T10:56:41.189Z,100828.44
2022-11-03T10:59:07.938Z,100826.47
2022-11-03T11:01:34.865Z,100820.38
2022-11-03T11:04:01.860Z,100811.44
2022-11-03T11:06:28.628Z,100808.06
2022-11-03T11:08:59.898Z,100800.75
2022-11-03T11:11:26.986Z,100789.47
2022-11-03T11:13:53.891Z,100789.03
2022-11-03T11:16:20.685Z,100788.22
2022-11-03T11:18:47.432Z,100783.69
2022-11-03T11:21:14.194Z,100777.94
2022-11-03T11:23:41.568Z,100770.94
2022-11-03T11:26:08.405Z,100771.56
2022-11-03T11:28:35.155Z,100774.69
2022-11-03T11:31:02.056Z,100768.91
2022-11-03T11:33:28.856Z,100756.88
2022-11-03T11:35:59.018Z,100747.22
2022-11-03T11:38:26.140Z,100748.31
2022-11-03T11:40:52.933Z,100742.94
2022-11-03T11:43:19.716Z,100730.44
2022-11-03T11:45:46.483Z,100730.63
2022-11-03T11:48:18.623Z,100729.47
2022-11-03T11:50:45.959Z,100725.59
2022-11-03T11:53:12.750Z,100719.06
2022-11-03T11:55:39.915Z,100713.78
2022-11-03T11:58:06.807Z,100702.13
2022-11-03T12:00:33.602Z,100691.00
2022-11-03T12:03:00.525Z,100692.97
2022-11-03T12:05:27.767Z,100701.31
2022-11-03T12:07:54.688Z,100691.22
2022-11-03T12:10:22.694Z,100682.69
2022-11-03T12:12:49.494Z,100680.97
2022-11-03T12:15:16.248Z,100661.44
2022-11-03T12:17:42.995Z,100657.63
2022-11-03T12:20:09.952Z,100650.25
2022-11-03T12:22:36.754Z,100636.53
2022-11-03T12:25:04.675Z,100624.53
2022-11-03T12:27:31.678Z,100623.25
2022-11-03T12:29:59.290Z,100628.94
2022-11-03T12:32:33.578Z,100622.59
2022-11-03T12:35:01.659Z,100613.78
2022-11-03T12:37:28.450Z,100593.53
2022-11-03T12:39:55.231Z,100591.44
2022-11-03T12:42:23.012Z,100587.25
2022-11-03T12:44:49.754Z,100586.06
2022-11-03T12:47:16.627Z,100585.13
2022-11-03T12:49:43.523Z,100589.97
2022-11-03T12:52:11.245Z,100581.59
2022-11-03T12:54:38.087Z,100578.22
2022-11-03T12:57:04.867Z,100568.09
2022-11-03T12:59:31.623Z,100558.59
2022-11-03T13:01:58.472Z,100557.41
2022-11-03T13:04:25.320Z,100551.97
2022-11-03T13:06:52.062Z,100550.13
2022-11-03T13:09:18.807Z,100545.59
2022-11-03T13:12:04.495Z,100548.34
2022-11-03T13:14:31.305Z,100546.50
2022-11-03T13:16:58.488Z,100531.66
2022-11-03T13:19:25.288Z,100523.56
2022-11-03T13:21:52.083Z,100520.78
2022-11-03T13:24:18.843Z,100516.91
2022-11-03T13:26:45.634Z,100497.97
2022-11-03T13:29:12.375Z,100502.25
2022-11-03T13:31:39.210Z,100493.72
2022-11-03T13:34:06.268Z,100474.31
2022-11-03T13:36:33.167Z,100477.91
2022-11-03T13:38:59.957Z,100476.84
2022-11-03T13:41:26.866Z,100463.47
2022-11-03T13:43:53.608Z,100462.88
2022-11-03T13:46:20.368Z,100459.47
2022-11-03T13:51:33.930Z,100465.00
2022-11-03T13:59:35.342Z,100440.03
2022-11-03T14:04:48.852Z,100434.25
2022-11-03T14:07:15.606Z,100430.34
2022-11-03T14:09:42.552Z,100427.22
2022-11-03T14:12:27.965Z,100430.13
2022-11-03T14:14:54.751Z,100425.47
2022-11-03T14:17:21.522Z,100430.28
2022-11-03T14:19:52.341Z,100421.63
2022-11-03T14:22:19.533Z,100421.03
2022-11-03T14:24:46.311Z,100413.19
2022-11-03T14:27:13.120Z,100418.91
2022-11-03T14:29:39.928Z,100415.28
2022-11-03T14:32:06.750Z,100411.44
2022-11-03T14:34:33.789Z,100416.28
2022-11-03T14:37:00.633Z,100410.41
2022-11-03T14:39:27.401Z,100411.63
2022-11-03T14:42:03.118Z,100402.91
2022-11-03T14:44:29.907Z,100391.16
2022-11-03T14:46:57.047Z,100388.91
2022-11-03T14:49:24.094Z,100377.41
2022-11-03T14:51:51.013Z,100372.16
2022-11-03T14:54:17.809Z,100359.78
2022-11-03T14:56:44.584Z,100352.56
2022-11-03T14:59:11.411Z,100350.94
2022-11-03T15:01:38.807Z,100340.47
2022-11-03T15:04:06.572Z,100346.53
2022-11-03T15:06:33.349Z,100339.78
2022-11-03T15:09:00.194Z,100331.72
2022-11-03T15:11:27.042Z,100324.09
2022-11-03T15:13:55.260Z,100330.31
2022-11-03T15:16:22.040Z,100325.19
2022-11-03T15:18:48.867Z,100323.91
2022-11-03T15:21:15.616Z,100313.41
2022-11-03T15:26:29.115Z,100321.53
2022-11-03T15:28:55.864Z,100321.44
2022-11-03T15:31:23.660Z,100316.41
2022-11-03T15:33:50.658Z,100312.88
2022-11-03T15:36:17.482Z,100300.28
2022-11-03T15:38:44.272Z,100300.31
2022-11-03T15:41:17.326Z,100295.03
2022-11-03T15:43:44.122Z,100289.09
2022-11-03T15:46:10.944Z,100279.16
2022-11-03T15:48:37.755Z,100268.75
2022-11-03T15:51:04.502Z,100255.53
2022-11-03T15:53:32.439Z,100244.66
2022-11-03T15:55:59.270Z,100243.22
2022-11-03T15:58:26.019Z,100241.34
2022-11-03T16:00:52.901Z,100248.38
2022-11-03T16:03:19.803Z,100247.03
2022-11-03T16:05:46.656Z,100247.09
2022-11-03T16:08:13.450Z,100231.94
2022-11-03T16:10:44.230Z,100229.44
2022-11-03T16:13:16.375Z,100218.47
2022-11-03T16:15:43.136Z,100208.56
2022-11-03T16:18:10.265Z,100195.16
2022-11-03T16:20:37.323Z,100191.44
2022-11-03T16:23:04.122Z,100177.38
2022-11-03T16:25:30.880Z,100180.59
2022-11-03T16:27:57.715Z,100175.09
2022-11-03T16:30:24.552Z,100174.97
2022-11-03T16:32:53.296Z,100174.59
2022-11-03T16:35:20.472Z,100169.72
2022-11-03T16:37:47.259Z,100171.28
2022-11-03T16:40:19.113Z,100162.75
2022-11-03T16:42:46.389Z,100166.78
2022-11-03T16:45:13.164Z,100162.66
2022-11-03T16:47:39.926Z,100163.50
2022-11-03T16:50:06.889Z,100150.78
2022-11-03T16:52:33.660Z,100139.97
2022-11-03T16:55:00.408Z,100136.50
2022-11-03T16:57:27.201Z,100118.41
2022-11-03T16:59:53.968Z,100113.34
2022-11-03T17:02:20.804Z,100106.53
2022-11-03T17:04:47.602Z,100101.41
2022-11-03T17:07:14.356Z,100095.88
2022-11-03T17:09:41.129Z,100087.75
2022-11-03T17:12:07.877Z,100085.53
2022-11-03T17:14:36.051Z,100077.28
2022-11-03T17:17:02.805Z,100075.59
2022-11-03T17:19:29.626Z,100081.59
2022-11-03T17:21:57.111Z,100081.03
2022-11-03T17:24:24.013Z,100068.91
2022-11-03T17:26:51.308Z,100058.75
2022-11-03T17:29:18.091Z,100054.03
2022-11-03T17:31:45.095Z,100065.16
2022-11-03T17:34:11.843Z,100061.75
2022-11-03T17:36:38.628Z,100065.44
2022-11-03T17:39:05.383Z,100068.31
2022-11-03T17:41:32.201Z,100061.66
2022-11-03T17:43:58.972Z,100056.19
2022-11-03T17:46:26.246Z,100046.06
2022-11-03T17:48:53.026Z,100046.13
2022-11-03T17:51:19.793Z,100042.66
2022-11-03T17:53:46.612Z,100046.66
2022-11-03T17:56:29.654Z,100035.66
2022-11-03T17:58:57.169Z,100033.78
2022-11-03T18:01:24.031Z,100035.81
2022-11-03T18:03:51.992Z,100018.94
2022-11-03T18:06:19.468Z,100018.78
2022-11-03T18:08:46.532Z,100016.09
2022-11-03T18:11:33.278Z,100008.63
2022-11-03T18:14:00.048Z,100004.56
2022-11-03T18:16:26.811Z,99996.44
2022-11-03T18:18:53.691Z,99994.13
2022-11-03T18:21:20.443Z,99996.00
2022-11-03T18:23:47.271Z,100004.72
2022-11-03T18:26:14.039Z,99997.06
2022-11-03T18:28:40.798Z,99986.72
2022-11-03T18:31:07.556Z,99974.72
2022-11-03T18:33:34.377Z,99969.22
2022-11-03T18:36:01.144Z,99968.16
2022-11-03T18:38:27.902Z,99956.41
2022-11-03T18:40:54.723Z,99947.72
2022-11-03T18:43:21.502Z,99948.47
2022-11-03T18:45:48.308Z,99933.69
2022-11-03T18:48:19.345Z,99931.09
2022-11-03T18:50:46.191Z,99930.22
2022-11-03T18:53:13.545Z,99930.88
2022-11-03T18:55:41.046Z,99929.28
2022-11-03T18:58:08.177Z,99923.47
2022-11-03T19:00:35.166Z,99931.72
2022-11-03T19:03:01.958Z,99935.66
2022-11-03T19:05:29.642Z,99937.31
2022-11-03T19:07:56.387Z,99931.31
2022-11-03T19:10:24.445Z,99937.56
2022-11-03T19:12:51.287Z,99938.00
2022-11-03T19:15:18.055Z,99935.16
2022-11-03T19:17:44.827Z,99919.53
2022-11-03T19:20:11.569Z,99913.53
2022-11-03T19:22:38.377Z,99912.34
2022-11-03T19:25:05.145Z,99898.38
2022-11-03T19:27:31.919Z,99903.59
2022-11-03T19:29:58.672Z,99888.88
2022-11-03T19:32:25.457Z,99892.69
2022-11-03T19:34:52.359Z,99886.59
2022-11-03T19:37:19.120Z,99883.66
2022-11-03T19:39:47.236Z,99871.34
2022-11-03T19:42:30.818Z,99866.91
2022-11-03T19:44:58.290Z,99871.72
2022-11-03T19:47:28.286Z,99865.06
2022-11-03T19:49:58.353Z,99864.72
2022-11-03T19:52:25.435Z,99851.38
2022-11-03T19:54:52.194Z,99851.69
2022-11-03T19:57:18.937Z,99854.72
2022-11-03T19:59:45.764Z,99850.66
2022-11-03T20:02:12.709Z,99842.16
2022-11-03T20:04:41.276Z,99848.63
2022-11-03T20:07:08.761Z,99842.19
2022-11-03T20:09:35.509Z,99839.94
2022-11-03T20:12:02.365Z,99835.19
2022-11-03T20:14:29.259Z,99833.44
2022-11-03T20:16:56.220Z,99831.91
2022-11-03T20:19:22.964Z,99822.91
2022-11-03T20:21:49.767Z,99822.50
2022-11-03T20:24:16.532Z,99813.72
2022-11-03T20:26:43.377Z,99808.50
2022-11-03T20:29:10.140Z,99810.22
2022-11-03T20:31:36.940Z,99807.59
2022-11-03T20:34:03.708Z,99810.50
2022-11-03T20:36:30.466Z,99797.88
2022-11-03T20:38:59.411Z,99802.63
2022-11-03T20:41:26.404Z,99817.84
2022-11-03T20:43:54.928Z,99808.69
2022-11-03T20:46:21.844Z,99797.97
2022-11-03T20:48:48.650Z,99800.13
2022-11-03T20:51:15.593Z,99799.72
2022-11-03T20:53:42.408Z,99801.63
2022-11-03T20:56:09.159Z,99806.53
2022-11-03T20:58:35.943Z,99803.22
2022-11-03T21:01:02.797Z,99802.19
2022-11-03T21:03:58.785Z,99791.00
2022-11-03T21:06:16.629Z,99785.97
2022-11-03T21:08:43.536Z,99786.28
2022-11-03T21:11:27.850Z,99769.38
2022-11-03T21:13:55.075Z,99771.66
2022-11-03T21:16:40.667Z,99762.16
2022-11-03T21:19:25.906Z,99754.06
2022-11-03T21:21:52.756Z,99756.56
2022-11-03T21:24:19.513Z,99770.38
2022-11-03T21:26:46.672Z,99764.47
2022-11-03T21:29:14.884Z,99769.91
2022-11-03T21:31:46.641Z,99779.38
2022-11-03T21:34:13.439Z,99778.91
2022-11-03T21:36:40.281Z,99775.72
2022-11-03T21:39:07.027Z,99767.13
2022-11-03T21:41:57.157Z,99763.66
2022-11-03T21:44:24.620Z,99756.47
2022-11-03T21:46:51.441Z,99764.44
2022-11-03T21:49:36.616Z,99767.34
2022-11-03T21:52:03.363Z,99761.22
2022-11-03T21:54:30.110Z,99758.88
2022-11-03T21:56:56.874Z,99761.22
2022-11-03T21:59:23.810Z,99751.75
2022-11-03T22:01:53.014Z,99745.59
2022-11-03T22:04:19.932Z,99759.25
2022-11-03T22:06:46.760Z,99763.72
2022-11-03T22:09:13.515Z,99775.22
2022-11-03T22:11:40.332Z,99766.97
2022-11-03T22:14:07.162Z,99769.25
2022-11-03T22:16:36.969Z,99768.44
2022-11-03T22:19:22.522Z,99769.94
2022-11-03T22:22:07.805Z,99767.81
2022-11-03T22:24:53.163Z,99759.91
2022-11-03T22:27:19.912Z,99762.22
2022-11-03T22:30:09.810Z,99760.25
2022-11-03T22:32:36.764Z,99753.56
2022-11-03T22:35:22.026Z,99750.56
2022-11-03T22:37:48.802Z,99739.88
2022-11-03T22:40:34.102Z,99732.91
2022-11-03T22:43:19.528Z,99725.25
2022-11-03T22:45:52.159Z,99721.16
2022-11-03T22:48:19.018Z,99712.72
2022-11-03T22:50:45.766Z,99712.34
2022-11-03T22:53:31.422Z,99717.78
2022-11-03T22:55:58.157Z,99709.13
2022-11-03T22:58:29.357Z,99719.44
2022-11-03T23:00:57.213Z,99722.69
2022-11-03T23:03:24.084Z,99727.31
2022-11-03T23:05:50.823Z,99732.69
2022-11-03T23:08:17.665Z,99731.56
2022-11-03T23:10:44.523Z,99726.56
2022-11-03T23:13:11.504Z,99722.75
2022-11-03T23:15:43.455Z,99708.09
2022-11-03T23:18:45.535Z,99708.88
2022-11-03T23:21:12.379Z,99708.06
2022-11-03T23:23:57.783Z,99710.38
2022-11-03T23:26:24.560Z,99704.53
2022-11-03T23:28:51.332Z,99712.31
2022-11-03T23:31:18.252Z,99710.28
2022-11-03T23:33:45.060Z,99715.69
2022-11-03T23:36:12.080Z,99714.88
2022-11-03T23:38:38.875Z,99715.25
2022-11-03T23:41:05.651Z,99704.66
2022-11-03T23:43:32.417Z,99713.25
2022-11-03T23:46:17.891Z,99701.16
2022-11-03T23:48:47.520Z,99703.56
2022-11-03T23:51:15.220Z,99700.88
2022-11-03T23:53:42.029Z,99696.13
2022-11-03T23:56:27.449Z,99692.13
2022-11-03T23:58:54.221Z,99690.22
